Tonasket, WA (98855)

6:32 PM PDT on August 26, 2016 (GMT -0700)
Sinlahekin Wildlife Area | | Change Station
Active Advisory: Fire Weather Warning

Elev 1539 ft 48.75 °N, 119.65 °W | Updated 2 seconds ago

Clear
Clear
87.3 °F
Feels Like 84 °F
N
0.0
Wind Variable Wind from West
Gusts 10.0 mph

Today
High -- | Low -- °F
--% Chance of Precip.
Yesterday
High -- | Low -- °F
Precip. -- in
Pressure 29.75 in
Visibility 10.0 miles
Clouds Clear
Heat Index 84 °F
Dew Point 44 °F
Humidity 22%
Rainfall 0.00 in
Snow Depth Not available.
6:06 AM 7:50 PM
Waning Crescent, 29% visible
METAR KOMK 270053Z AUTO 18004KT 10SM CLR 31/04 A2977 RMK AO2 SLP072 T03110039
Pressure 29.75 in
Visibility 10.0 miles
Clouds Clear
Heat Index 84 °F
Dew Point 44 °F
Humidity 22%
Rainfall 0.00 in
Snow Depth Not available.
6:06 AM 7:50 PM
Waning Crescent, 29% visible
METAR KOMK 270053Z AUTO 18004KT 10SM CLR 31/04 A2977 RMK AO2 SLP072 T03110039

10-Day Weather Forecast

Almanac

Astronomy

Aug. 26, 2016 Rise Set
Actual Time
Civil Twilight
Nautical Twilight
Astronomical Twilight
Moon
Length of Visible Light
Length of Day
Tomorrow will be .
, % of the Moon is Illuminated

Today's Extremes

State Highs State Lows

Community

WunderPhotos

Upload Photos

1,935,265 photos uploaded!

WunderBlog® & News

Nearby

Air Quality

  Air Quality AQ Index Pollutant
Not available.

Snow Depth

Station Depth Elevation

Earthquake Activity

City Distance Mag. Time & Date
Minimum magnitude displayed is 2.5.

Coastal Water Temperatures

Place Temperature

Stations

Nearby Weather Stations

Station Location Temp. Windchill Dew Point Humidity Wind Precip. Elev Updated Type
                   

Watches & Warnings

Fire Weather Warning
Issued: 12:09 PM PDT Aug. 26, 2016 – National Weather Service

... Red flag warning in effect from 1 PM to 9 PM PDT Saturday for
wind and low relative humidity for southern Pend Oreille and
Stevens counties...

The National Weather Service in Spokane has issued a red flag
warning for wind and low relative humidity... which is in effect
from 1 PM to 9 PM PDT Saturday.

* Affected area: fire weather zone 686 East Washington northeast
(zone 686).

* Winds: southwest 10 to 15 mph with gusts up to 30 mph.

* Relative humidities: 18 to 25 percent.

* Impacts: dry... warm... and breezy conditions will promote rapid
fire spread with any new or existing fires.

Precautionary/preparedness actions...

A red flag warning means that critical fire weather conditions
are either occurring now... or will shortly. A combination of
strong winds... low relative humidity... and warm temperatures will
create extreme fire growth potential.